sensor_id;sensor_type;location;lat;lon;timestamp;P1;durP1;ratioP1;P2;durP2;ratioP2
15049;SDS011;7622;42.724;23.250;2023-06-10T00:01:10;13.53;;;7.83;;
15049;SDS011;7622;42.724;23.250;2023-06-10T00:03:37;7.87;;;7.10;;
15049;SDS011;7622;42.724;23.250;2023-06-10T00:06:04;9.93;;;7.60;;
15049;SDS011;7622;42.724;23.250;2023-06-10T00:08:32;8.03;;;7.37;;
15049;SDS011;7622;42.724;23.250;2023-06-10T00:10:59;7.97;;;7.17;;
15049;SDS011;7622;42.724;23.250;2023-06-10T00:13:26;8.17;;;7.33;;
15049;SDS011;7622;42.724;23.250;2023-06-10T00:15:53;9.30;;;8.27;;
15049;SDS011;7622;42.724;23.250;2023-06-10T00:18:20;7.87;;;7.13;;
15049;SDS011;7622;42.724;23.250;2023-06-10T00:20:47;8.83;;;8.03;;
15049;SDS011;7622;42.724;23.250;2023-06-10T00:23:20;8.57;;;7.80;;
15049;SDS011;7622;42.724;23.250;2023-06-10T00:25:49;9.77;;;7.83;;
15049;SDS011;7622;42.724;23.250;2023-06-10T00:28:15;9.50;;;7.53;;
15049;SDS011;7622;42.724;23.250;2023-06-10T00:30:42;15.57;;;7.17;;
15049;SDS011;7622;42.724;23.250;2023-06-10T00:33:09;12.03;;;8.13;;
15049;SDS011;7622;42.724;23.250;2023-06-10T00:35:36;9.00;;;7.90;;
15049;SDS011;7622;42.724;23.250;2023-06-10T00:38:02;8.50;;;7.80;;
15049;SDS011;7622;42.724;23.250;2023-06-10T00:40:29;9.03;;;8.23;;
15049;SDS011;7622;42.724;23.250;2023-06-10T00:42:57;8.47;;;7.73;;
15049;SDS011;7622;42.724;23.250;2023-06-10T00:45:24;9.10;;;8.20;;
15049;SDS011;7622;42.724;23.250;2023-06-10T00:47:51;10.23;;;8.13;;
15049;SDS011;7622;42.724;23.250;2023-06-10T00:50:17;9.80;;;8.77;;
15049;SDS011;7622;42.724;23.250;2023-06-10T00:52:44;8.67;;;7.87;;
15049;SDS011;7622;42.724;23.250;2023-06-10T00:55:13;11.53;;;8.57;;
15049;SDS011;7622;42.724;23.250;2023-06-10T00:57:42;10.43;;;8.67;;
15049;SDS011;7622;42.724;23.250;2023-06-10T01:00:11;9.00;;;8.17;;
15049;SDS011;7622;42.724;23.250;2023-06-10T01:02:39;12.40;;;9.30;;
15049;SDS011;7622;42.724;23.250;2023-06-10T01:05:05;8.87;;;8.07;;
15049;SDS011;7622;42.724;23.250;2023-06-10T01:07:34;10.07;;;8.40;;
15049;SDS011;7622;42.724;23.250;2023-06-10T01:10:06;10.23;;;8.87;;
15049;SDS011;7622;42.724;23.250;2023-06-10T01:12:39;9.83;;;8.60;;
15049;SDS011;7622;42.724;23.250;2023-06-10T01:15:15;10.10;;;8.17;;
15049;SDS011;7622;42.724;23.250;2023-06-10T01:17:53;8.27;;;7.47;;
15049;SDS011;7622;42.724;23.250;2023-06-10T01:20:22;9.00;;;8.07;;
15049;SDS011;7622;42.724;23.250;2023-06-10T01:22:50;8.63;;;7.77;;
15049;SDS011;7622;42.724;23.250;2023-06-10T01:25:19;8.83;;;7.97;;
15049;SDS011;7622;42.724;23.250;2023-06-10T01:27:54;11.17;;;8.47;;
15049;SDS011;7622;42.724;23.250;2023-06-10T01:30:48;9.60;;;7.83;;
15049;SDS011;7622;42.724;23.250;2023-06-10T01:33:27;9.00;;;7.53;;
15049;SDS011;7622;42.724;23.250;2023-06-10T01:35:56;14.37;;;7.57;;
15049;SDS011;7622;42.724;23.250;2023-06-10T01:38:25;11.50;;;8.10;;
15049;SDS011;7622;42.724;23.250;2023-06-10T01:40:53;7.70;;;7.00;;
15049;SDS011;7622;42.724;23.250;2023-06-10T01:43:21;7.73;;;7.00;;
15049;SDS011;7622;42.724;23.250;2023-06-10T01:45:48;7.77;;;7.07;;
15049;SDS011;7622;42.724;23.250;2023-06-10T01:48:15;8.20;;;6.97;;
15049;SDS011;7622;42.724;23.250;2023-06-10T01:50:42;8.83;;;7.60;;
15049;SDS011;7622;42.724;23.250;2023-06-10T01:53:09;8.53;;;7.50;;
15049;SDS011;7622;42.724;23.250;2023-06-10T01:55:37;7.27;;;6.67;;
15049;SDS011;7622;42.724;23.250;2023-06-10T01:58:04;9.87;;;7.30;;
15049;SDS011;7622;42.724;23.250;2023-06-10T02:00:30;7.37;;;6.77;;
15049;SDS011;7622;42.724;23.250;2023-06-10T02:02:57;7.23;;;6.63;;
15049;SDS011;7622;42.724;23.250;2023-06-10T02:05:24;8.00;;;7.20;;
15049;SDS011;7622;42.724;23.250;2023-06-10T02:07:51;8.87;;;6.47;;
15049;SDS011;7622;42.724;23.250;2023-06-10T02:10:18;8.37;;;7.57;;
15049;SDS011;7622;42.724;23.250;2023-06-10T02:12:46;8.30;;;7.70;;
15049;SDS011;7622;42.724;23.250;2023-06-10T02:15:12;7.73;;;7.13;;
15049;SDS011;7622;42.724;23.250;2023-06-10T02:17:39;10.70;;;8.13;;
15049;SDS011;7622;42.724;23.250;2023-06-10T02:20:06;9.10;;;7.80;;
15049;SDS011;7622;42.724;23.250;2023-06-10T02:22:36;8.20;;;6.87;;
15049;SDS011;7622;42.724;23.250;2023-06-10T02:25:03;7.53;;;6.73;;
15049;SDS011;7622;42.724;23.250;2023-06-10T02:27:31;7.97;;;7.13;;
15049;SDS011;7622;42.724;23.250;2023-06-10T02:29:59;7.43;;;6.93;;
15049;SDS011;7622;42.724;23.250;2023-06-10T02:32:26;8.97;;;8.17;;
15049;SDS011;7622;42.724;23.250;2023-06-10T02:34:53;7.93;;;7.23;;
15049;SDS011;7622;42.724;23.250;2023-06-10T02:37:20;8.30;;;7.53;;
15049;SDS011;7622;42.724;23.250;2023-06-10T02:39:47;7.83;;;7.07;;
15049;SDS011;7622;42.724;23.250;2023-06-10T02:42:14;10.73;;;7.07;;
15049;SDS011;7622;42.724;23.250;2023-06-10T02:44:40;8.37;;;7.67;;
15049;SDS011;7622;42.724;23.250;2023-06-10T02:47:08;8.20;;;7.60;;
15049;SDS011;7622;42.724;23.250;2023-06-10T02:49:35;9.13;;;7.60;;
15049;SDS011;7622;42.724;23.250;2023-06-10T02:52:02;7.90;;;7.30;;
15049;SDS011;7622;42.724;23.250;2023-06-10T02:54:29;9.80;;;7.93;;
15049;SDS011;7622;42.724;23.250;2023-06-10T02:56:56;8.50;;;7.40;;
15049;SDS011;7622;42.724;23.250;2023-06-10T02:59:22;9.13;;;8.30;;
15049;SDS011;7622;42.724;23.250;2023-06-10T03:01:49;8.70;;;7.87;;
15049;SDS011;7622;42.724;23.250;2023-06-10T03:04:17;11.03;;;8.60;;
15049;SDS011;7622;42.724;23.250;2023-06-10T03:06:45;9.23;;;8.40;;
15049;SDS011;7622;42.724;23.250;2023-06-10T03:09:12;10.57;;;9.37;;
15049;SDS011;7622;42.724;23.250;2023-06-10T03:11:39;10.67;;;9.10;;
15049;SDS011;7622;42.724;23.250;2023-06-10T03:14:06;12.90;;;9.53;;
15049;SDS011;7622;42.724;23.250;2023-06-10T03:16:33;10.67;;;8.97;;
15049;SDS011;7622;42.724;23.250;2023-06-10T03:19:00;9.17;;;8.47;;
15049;SDS011;7622;42.724;23.250;2023-06-10T03:21:28;9.60;;;8.67;;
15049;SDS011;7622;42.724;23.250;2023-06-10T03:23:55;9.87;;;8.90;;
15049;SDS011;7622;42.724;23.250;2023-06-10T03:26:21;9.87;;;8.87;;
15049;SDS011;7622;42.724;23.250;2023-06-10T03:28:48;12.57;;;9.33;;
15049;SDS011;7622;42.724;23.250;2023-06-10T03:31:15;9.70;;;8.80;;
15049;SDS011;7622;42.724;23.250;2023-06-10T03:33:42;9.93;;;8.27;;
15049;SDS011;7622;42.724;23.250;2023-06-10T03:36:09;7.93;;;7.13;;
15049;SDS011;7622;42.724;23.250;2023-06-10T03:38:37;9.83;;;9.00;;
15049;SDS011;7622;42.724;23.250;2023-06-10T03:41:04;10.20;;;9.03;;
15049;SDS011;7622;42.724;23.250;2023-06-10T03:43:31;15.40;;;8.77;;
15049;SDS011;7622;42.724;23.250;2023-06-10T03:45:58;10.03;;;8.73;;
15049;SDS011;7622;42.724;23.250;2023-06-10T03:48:24;8.27;;;7.57;;
15049;SDS011;7622;42.724;23.250;2023-06-10T03:50:51;8.73;;;8.00;;
15049;SDS011;7622;42.724;23.250;2023-06-10T03:53:19;9.43;;;8.37;;
15049;SDS011;7622;42.724;23.250;2023-06-10T03:55:50;10.50;;;8.33;;
15049;SDS011;7622;42.724;23.250;2023-06-10T03:58:19;11.13;;;8.47;;
15049;SDS011;7622;42.724;23.250;2023-06-10T04:00:46;9.23;;;8.17;;
15049;SDS011;7622;42.724;23.250;2023-06-10T04:03:13;8.90;;;7.93;;
15049;SDS011;7622;42.724;23.250;2023-06-10T04:05:40;8.63;;;7.93;;
15049;SDS011;7622;42.724;23.250;2023-06-10T04:08:07;9.17;;;8.13;;
15049;SDS011;7622;42.724;23.250;2023-06-10T04:10:34;8.73;;;7.83;;
15049;SDS011;7622;42.724;23.250;2023-06-10T04:13:02;9.10;;;7.43;;
15049;SDS011;7622;42.724;23.250;2023-06-10T04:15:29;8.53;;;7.70;;
15049;SDS011;7622;42.724;23.250;2023-06-10T04:17:58;7.80;;;7.03;;
15049;SDS011;7622;42.724;23.250;2023-06-10T04:20:26;14.03;;;8.33;;
15049;SDS011;7622;42.724;23.250;2023-06-10T04:22:53;10.63;;;7.70;;
15049;SDS011;7622;42.724;23.250;2023-06-10T04:25:20;8.47;;;7.57;;
15049;SDS011;7622;42.724;23.250;2023-06-10T04:27:46;12.67;;;8.30;;
15049;SDS011;7622;42.724;23.250;2023-06-10T04:30:15;12.60;;;8.10;;
15049;SDS011;7622;42.724;23.250;2023-06-10T04:32:43;9.03;;;7.57;;
15049;SDS011;7622;42.724;23.250;2023-06-10T04:35:11;8.40;;;7.63;;
15049;SDS011;7622;42.724;23.250;2023-06-10T04:37:39;7.80;;;7.00;;
15049;SDS011;7622;42.724;23.250;2023-06-10T04:40:06;11.87;;;7.27;;
15049;SDS011;7622;42.724;23.250;2023-06-10T04:42:33;8.40;;;7.57;;
15049;SDS011;7622;42.724;23.250;2023-06-10T04:45:00;10.73;;;7.10;;
15049;SDS011;7622;42.724;23.250;2023-06-10T04:47:30;10.57;;;6.70;;
15049;SDS011;7622;42.724;23.250;2023-06-10T04:49:58;10.27;;;6.87;;
15049;SDS011;7622;42.724;23.250;2023-06-10T04:52:25;14.37;;;6.93;;
15049;SDS011;7622;42.724;23.250;2023-06-10T04:54:51;8.87;;;6.67;;
15049;SDS011;7622;42.724;23.250;2023-06-10T04:57:18;11.00;;;6.23;;
15049;SDS011;7622;42.724;23.250;2023-06-10T04:59:45;7.03;;;6.43;;
15049;SDS011;7622;42.724;23.250;2023-06-10T05:02:12;10.00;;;6.70;;
15049;SDS011;7622;42.724;23.250;2023-06-10T05:04:40;10.13;;;7.27;;
15049;SDS011;7622;42.724;23.250;2023-06-10T05:07:07;8.53;;;6.87;;
15049;SDS011;7622;42.724;23.250;2023-06-10T05:09:34;6.70;;;6.13;;
15049;SDS011;7622;42.724;23.250;2023-06-10T05:12:01;7.57;;;6.80;;
15049;SDS011;7622;42.724;23.250;2023-06-10T05:14:27;6.90;;;6.20;;
15049;SDS011;7622;42.724;23.250;2023-06-10T05:16:54;7.37;;;6.63;;
15049;SDS011;7622;42.724;23.250;2023-06-10T05:19:21;7.73;;;7.13;;
15049;SDS011;7622;42.724;23.250;2023-06-10T05:21:49;9.63;;;7.40;;
15049;SDS011;7622;42.724;23.250;2023-06-10T05:24:16;8.13;;;7.40;;
15049;SDS011;7622;42.724;23.250;2023-06-10T05:26:42;8.07;;;7.37;;
15049;SDS011;7622;42.724;23.250;2023-06-10T05:29:09;7.83;;;7.10;;
15049;SDS011;7622;42.724;23.250;2023-06-10T05:31:36;7.60;;;6.97;;
15049;SDS011;7622;42.724;23.250;2023-06-10T05:34:03;7.90;;;7.17;;
15049;SDS011;7622;42.724;23.250;2023-06-10T05:36:29;7.53;;;6.77;;
15049;SDS011;7622;42.724;23.250;2023-06-10T05:38:58;8.63;;;6.90;;
15049;SDS011;7622;42.724;23.250;2023-06-10T05:41:25;7.07;;;6.47;;
15049;SDS011;7622;42.724;23.250;2023-06-10T05:43:52;7.60;;;6.90;;
15049;SDS011;7622;42.724;23.250;2023-06-10T05:46:19;8.73;;;6.80;;
15049;SDS011;7622;42.724;23.250;2023-06-10T05:48:46;9.23;;;6.90;;
15049;SDS011;7622;42.724;23.250;2023-06-10T05:51:13;7.43;;;6.83;;
15049;SDS011;7622;42.724;23.250;2023-06-10T05:53:39;6.50;;;5.90;;
15049;SDS011;7622;42.724;23.250;2023-06-10T05:56:07;6.87;;;6.03;;
15049;SDS011;7622;42.724;23.250;2023-06-10T05:58:34;7.83;;;6.17;;
15049;SDS011;7622;42.724;23.250;2023-06-10T06:01:01;6.40;;;5.83;;
15049;SDS011;7622;42.724;23.250;2023-06-10T06:03:28;7.50;;;6.77;;
15049;SDS011;7622;42.724;23.250;2023-06-10T06:05:55;7.00;;;6.30;;
15049;SDS011;7622;42.724;23.250;2023-06-10T06:08:21;7.27;;;6.40;;
15049;SDS011;7622;42.724;23.250;2023-06-10T06:10:48;10.93;;;7.57;;
15049;SDS011;7622;42.724;23.250;2023-06-10T06:13:17;6.77;;;6.23;;
15049;SDS011;7622;42.724;23.250;2023-06-10T06:15:44;7.40;;;6.80;;
15049;SDS011;7622;42.724;23.250;2023-06-10T06:18:11;7.40;;;6.80;;
15049;SDS011;7622;42.724;23.250;2023-06-10T06:20:38;7.63;;;6.53;;
15049;SDS011;7622;42.724;23.250;2023-06-10T06:23:04;7.97;;;7.20;;
15049;SDS011;7622;42.724;23.250;2023-06-10T06:25:31;7.60;;;6.77;;
15049;SDS011;7622;42.724;23.250;2023-06-10T06:27:58;7.70;;;6.80;;
15049;SDS011;7622;42.724;23.250;2023-06-10T06:30:26;10.27;;;5.77;;
15049;SDS011;7622;42.724;23.250;2023-06-10T06:32:53;5.67;;;5.17;;
15049;SDS011;7622;42.724;23.250;2023-06-10T06:35:20;7.17;;;6.50;;
15049;SDS011;7622;42.724;23.250;2023-06-10T06:37:47;6.77;;;5.57;;
15049;SDS011;7622;42.724;23.250;2023-06-10T06:40:13;7.33;;;6.00;;
15049;SDS011;7622;42.724;23.250;2023-06-10T06:42:40;11.33;;;5.90;;
15049;SDS011;7622;42.724;23.250;2023-06-10T06:45:07;8.37;;;6.10;;
15049;SDS011;7622;42.724;23.250;2023-06-10T06:47:36;6.40;;;5.90;;
15049;SDS011;7622;42.724;23.250;2023-06-10T06:50:03;5.97;;;5.50;;
15049;SDS011;7622;42.724;23.250;2023-06-10T06:52:30;6.37;;;5.87;;
15049;SDS011;7622;42.724;23.250;2023-06-10T06:54:57;5.83;;;5.30;;
15049;SDS011;7622;42.724;23.250;2023-06-10T06:57:24;5.60;;;5.20;;
15049;SDS011;7622;42.724;23.250;2023-06-10T06:59:51;5.90;;;5.50;;
15049;SDS011;7622;42.724;23.250;2023-06-10T07:02:17;6.67;;;5.63;;
15049;SDS011;7622;42.724;23.250;2023-06-10T07:04:46;8.07;;;5.83;;
15049;SDS011;7622;42.724;23.250;2023-06-10T07:07:14;7.13;;;5.37;;
15049;SDS011;7622;42.724;23.250;2023-06-10T07:09:41;6.70;;;6.10;;
15049;SDS011;7622;42.724;23.250;2023-06-10T07:12:08;9.30;;;5.10;;
15049;SDS011;7622;42.724;23.250;2023-06-10T07:14:35;6.60;;;4.73;;
15049;SDS011;7622;42.724;23.250;2023-06-10T07:17:02;4.90;;;4.40;;
15049;SDS011;7622;42.724;23.250;2023-06-10T07:19:29;5.83;;;4.60;;
15049;SDS011;7622;42.724;23.250;2023-06-10T07:21:57;8.53;;;4.57;;
15049;SDS011;7622;42.724;23.250;2023-06-10T07:24:24;4.83;;;4.23;;
15049;SDS011;7622;42.724;23.250;2023-06-10T07:26:51;4.20;;;3.80;;
15049;SDS011;7622;42.724;23.250;2023-06-10T07:29:18;4.53;;;3.83;;
15049;SDS011;7622;42.724;23.250;2023-06-10T07:31:44;4.07;;;3.77;;
15049;SDS011;7622;42.724;23.250;2023-06-10T07:34:11;3.93;;;3.73;;
15049;SDS011;7622;42.724;23.250;2023-06-10T07:36:38;7.47;;;4.40;;
15049;SDS011;7622;42.724;23.250;2023-06-10T07:39:06;4.10;;;3.70;;
15049;SDS011;7622;42.724;23.250;2023-06-10T07:41:33;5.03;;;4.33;;
15049;SDS011;7622;42.724;23.250;2023-06-10T07:44:00;3.90;;;3.60;;
15049;SDS011;7622;42.724;23.250;2023-06-10T07:46:27;6.23;;;4.33;;
15049;SDS011;7622;42.724;23.250;2023-06-10T07:48:54;3.90;;;3.60;;
15049;SDS011;7622;42.724;23.250;2023-06-10T07:51:21;3.93;;;3.50;;
15049;SDS011;7622;42.724;23.250;2023-06-10T07:53:48;4.90;;;3.87;;
15049;SDS011;7622;42.724;23.250;2023-06-10T07:56:16;4.10;;;3.80;;
15049;SDS011;7622;42.724;23.250;2023-06-10T07:58:43;4.97;;;3.57;;
15049;SDS011;7622;42.724;23.250;2023-06-10T08:01:09;4.20;;;3.90;;
15049;SDS011;7622;42.724;23.250;2023-06-10T08:03:36;4.43;;;3.80;;
15049;SDS011;7622;42.724;23.250;2023-06-10T08:06:03;4.97;;;3.60;;
15049;SDS011;7622;42.724;23.250;2023-06-10T08:08:30;4.67;;;3.50;;
15049;SDS011;7622;42.724;23.250;2023-06-10T08:10:57;4.15;;;3.75;;
15049;SDS011;7622;42.724;23.250;2023-06-10T08:13:25;3.53;;;3.33;;
15049;SDS011;7622;42.724;23.250;2023-06-10T08:15:52;4.60;;;3.80;;
15049;SDS011;7622;42.724;23.250;2023-06-10T08:18:20;5.70;;;3.90;;
15049;SDS011;7622;42.724;23.250;2023-06-10T08:20:47;4.15;;;3.88;;
15049;SDS011;7622;42.724;23.250;2023-06-10T08:23:14;4.28;;;3.80;;
15049;SDS011;7622;42.724;23.250;2023-06-10T08:25:41;6.07;;;3.80;;
15049;SDS011;7622;42.724;23.250;2023-06-10T08:28:08;4.93;;;3.60;;
15049;SDS011;7622;42.724;23.250;2023-06-10T08:30:36;4.35;;;3.70;;
15049;SDS011;7622;42.724;23.250;2023-06-10T08:33:03;4.20;;;3.88;;
15049;SDS011;7622;42.724;23.250;2023-06-10T08:35:29;3.83;;;3.53;;
15049;SDS011;7622;42.724;23.250;2023-06-10T08:37:56;3.42;;;3.13;;
15049;SDS011;7622;42.724;23.250;2023-06-10T08:40:23;6.75;;;3.53;;
15049;SDS011;7622;42.724;23.250;2023-06-10T08:42:52;4.57;;;4.18;;
15049;SDS011;7622;42.724;23.250;2023-06-10T08:45:25;3.13;;;2.90;;
15049;SDS011;7622;42.724;23.250;2023-06-10T08:47:57;2.97;;;2.72;;
15049;SDS011;7622;42.724;23.250;2023-06-10T08:50:26;3.15;;;2.95;;
15049;SDS011;7622;42.724;23.250;2023-06-10T08:52:57;4.35;;;3.25;;
15049;SDS011;7622;42.724;23.250;2023-06-10T08:55:26;5.20;;;3.25;;
15049;SDS011;7622;42.724;23.250;2023-06-10T08:57:56;3.70;;;3.15;;
15049;SDS011;7622;42.724;23.250;2023-06-10T09:00:23;4.38;;;4.07;;
15049;SDS011;7622;42.724;23.250;2023-06-10T09:02:52;6.03;;;3.67;;
15049;SDS011;7622;42.724;23.250;2023-06-10T09:05:20;3.22;;;3.00;;
15049;SDS011;7622;42.724;23.250;2023-06-10T09:07:48;3.55;;;3.10;;
15049;SDS011;7622;42.724;23.250;2023-06-10T09:10:15;4.07;;;2.88;;
15049;SDS011;7622;42.724;23.250;2023-06-10T09:12:42;3.55;;;3.25;;
15049;SDS011;7622;42.724;23.250;2023-06-10T09:15:09;3.42;;;3.22;;
15049;SDS011;7622;42.724;23.250;2023-06-10T09:17:37;5.28;;;4.13;;
15049;SDS011;7622;42.724;23.250;2023-06-10T09:20:06;4.35;;;2.92;;
15049;SDS011;7622;42.724;23.250;2023-06-10T09:22:35;2.10;;;2.00;;
15049;SDS011;7622;42.724;23.250;2023-06-10T09:25:02;2.35;;;2.22;;
15049;SDS011;7622;42.724;23.250;2023-06-10T09:27:30;2.30;;;2.20;;
15049;SDS011;7622;42.724;23.250;2023-06-10T09:29:57;3.22;;;2.92;;
15049;SDS011;7622;42.724;23.250;2023-06-10T09:32:24;3.70;;;2.45;;
15049;SDS011;7622;42.724;23.250;2023-06-10T09:34:52;2.85;;;2.65;;
15049;SDS011;7622;42.724;23.250;2023-06-10T09:37:21;5.85;;;2.60;;
15049;SDS011;7622;42.724;23.250;2023-06-10T09:40:05;2.50;;;2.30;;
15049;SDS011;7622;42.724;23.250;2023-06-10T09:42:33;3.00;;;2.33;;
15049;SDS011;7622;42.724;23.250;2023-06-10T09:45:00;2.40;;;2.17;;
15049;SDS011;7622;42.724;23.250;2023-06-10T09:47:27;3.25;;;2.53;;
15049;SDS011;7622;42.724;23.250;2023-06-10T09:49:55;2.55;;;2.08;;
15049;SDS011;7622;42.724;23.250;2023-06-10T09:52:22;3.40;;;3.10;;
15049;SDS011;7622;42.724;23.250;2023-06-10T09:54:49;2.85;;;2.28;;
15049;SDS011;7622;42.724;23.250;2023-06-10T09:57:18;2.58;;;2.38;;
15049;SDS011;7622;42.724;23.250;2023-06-10T09:59:46;2.40;;;2.30;;
15049;SDS011;7622;42.724;23.250;2023-06-10T10:02:16;2.38;;;2.28;;
15049;SDS011;7622;42.724;23.250;2023-06-10T10:04:43;2.78;;;2.60;;
15049;SDS011;7622;42.724;23.250;2023-06-10T10:07:10;3.47;;;3.22;;
15049;SDS011;7622;42.724;23.250;2023-06-10T10:09:37;2.53;;;2.42;;
15049;SDS011;7622;42.724;23.250;2023-06-10T10:12:06;2.85;;;2.75;;
15049;SDS011;7622;42.724;23.250;2023-06-10T10:14:37;2.58;;;2.47;;
15049;SDS011;7622;42.724;23.250;2023-06-10T10:17:04;3.15;;;2.85;;
15049;SDS011;7622;42.724;23.250;2023-06-10T10:19:36;3.58;;;3.10;;
15049;SDS011;7622;42.724;23.250;2023-06-10T10:22:07;2.65;;;2.45;;
15049;SDS011;7622;42.724;23.250;2023-06-10T10:24:38;2.65;;;2.38;;
15049;SDS011;7622;42.724;23.250;2023-06-10T10:27:11;3.08;;;2.97;;
15049;SDS011;7622;42.724;23.250;2023-06-10T10:29:46;2.70;;;2.55;;
15049;SDS011;7622;42.724;23.250;2023-06-10T10:32:15;3.88;;;2.63;;
15049;SDS011;7622;42.724;23.250;2023-06-10T10:34:43;2.90;;;2.70;;
15049;SDS011;7622;42.724;23.250;2023-06-10T10:37:17;3.30;;;3.08;;
15049;SDS011;7622;42.724;23.250;2023-06-10T10:39:44;2.70;;;2.53;;
15049;SDS011;7622;42.724;23.250;2023-06-10T10:42:11;2.72;;;2.33;;
15049;SDS011;7622;42.724;23.250;2023-06-10T10:44:39;3.45;;;2.60;;
15049;SDS011;7622;42.724;23.250;2023-06-10T10:47:09;3.20;;;3.00;;
15049;SDS011;7622;42.724;23.250;2023-06-10T10:49:37;3.00;;;2.70;;
15049;SDS011;7622;42.724;23.250;2023-06-10T10:52:08;3.70;;;3.10;;
15049;SDS011;7622;42.724;23.250;2023-06-10T10:54:39;3.17;;;2.95;;
15049;SDS011;7622;42.724;23.250;2023-06-10T10:57:14;4.07;;;3.03;;
15049;SDS011;7622;42.724;23.250;2023-06-10T11:02:33;3.17;;;2.97;;
15049;SDS011;7622;42.724;23.250;2023-06-10T11:05:04;3.28;;;3.08;;
15049;SDS011;7622;42.724;23.250;2023-06-10T11:07:32;3.33;;;3.13;;
15049;SDS011;7622;42.724;23.250;2023-06-10T11:10:00;3.47;;;3.17;;
15049;SDS011;7622;42.724;23.250;2023-06-10T11:12:40;2.90;;;2.70;;
15049;SDS011;7622;42.724;23.250;2023-06-10T11:15:08;3.25;;;3.05;;
15049;SDS011;7622;42.724;23.250;2023-06-10T11:17:36;3.00;;;2.80;;
15049;SDS011;7622;42.724;23.250;2023-06-10T11:20:03;3.78;;;3.38;;
15049;SDS011;7622;42.724;23.250;2023-06-10T11:22:32;3.53;;;3.20;;
15049;SDS011;7622;42.724;23.250;2023-06-10T11:24:59;3.83;;;3.42;;
15049;SDS011;7622;42.724;23.250;2023-06-10T11:27:26;3.83;;;3.45;;
15049;SDS011;7622;42.724;23.250;2023-06-10T11:30:19;4.88;;;3.08;;
15049;SDS011;7622;42.724;23.250;2023-06-10T11:32:51;4.00;;;2.83;;
15049;SDS011;7622;42.724;23.250;2023-06-10T11:35:19;4.43;;;4.13;;
15049;SDS011;7622;42.724;23.250;2023-06-10T11:37:47;4.00;;;3.60;;
15049;SDS011;7622;42.724;23.250;2023-06-10T11:40:15;5.03;;;3.33;;
15049;SDS011;7622;42.724;23.250;2023-06-10T11:42:43;3.40;;;3.20;;
15049;SDS011;7622;42.724;23.250;2023-06-10T11:45:14;4.00;;;3.58;;
15049;SDS011;7622;42.724;23.250;2023-06-10T11:47:56;3.55;;;3.28;;
15049;SDS011;7622;42.724;23.250;2023-06-10T11:50:30;4.05;;;3.75;;
15049;SDS011;7622;42.724;23.250;2023-06-10T11:52:58;4.30;;;3.78;;
15049;SDS011;7622;42.724;23.250;2023-06-10T11:55:25;3.65;;;3.30;;
15049;SDS011;7622;42.724;23.250;2023-06-10T11:57:52;3.95;;;3.38;;
15049;SDS011;7622;42.724;23.250;2023-06-10T12:00:22;3.97;;;3.65;;
15049;SDS011;7622;42.724;23.250;2023-06-10T12:02:56;3.58;;;3.08;;
15049;SDS011;7622;42.724;23.250;2023-06-10T12:05:23;3.22;;;2.90;;
15049;SDS011;7622;42.724;23.250;2023-06-10T12:10:38;3.17;;;2.97;;
15049;SDS011;7622;42.724;23.250;2023-06-10T12:13:06;3.72;;;3.13;;
15049;SDS011;7622;42.724;23.250;2023-06-10T12:15:34;4.70;;;4.07;;
15049;SDS011;7622;42.724;23.250;2023-06-10T12:18:02;3.78;;;3.38;;
15049;SDS011;7622;42.724;23.250;2023-06-10T12:20:29;3.78;;;3.47;;
15049;SDS011;7622;42.724;23.250;2023-06-10T12:22:58;4.22;;;3.10;;
15049;SDS011;7622;42.724;23.250;2023-06-10T12:25:26;4.90;;;3.15;;
15049;SDS011;7622;42.724;23.250;2023-06-10T12:27:54;3.70;;;3.38;;
15049;SDS011;7622;42.724;23.250;2023-06-10T12:30:23;3.72;;;3.42;;
15049;SDS011;7622;42.724;23.250;2023-06-10T12:32:51;4.05;;;3.75;;
15049;SDS011;7622;42.724;23.250;2023-06-10T12:35:20;4.32;;;3.35;;
15049;SDS011;7622;42.724;23.250;2023-06-10T12:37:55;4.30;;;4.00;;
15049;SDS011;7622;42.724;23.250;2023-06-10T12:40:25;3.95;;;3.33;;
15049;SDS011;7622;42.724;23.250;2023-06-10T12:42:53;3.40;;;3.10;;
15049;SDS011;7622;42.724;23.250;2023-06-10T12:45:25;3.67;;;3.38;;
15049;SDS011;7622;42.724;23.250;2023-06-10T12:48:03;5.18;;;3.00;;
15049;SDS011;7622;42.724;23.250;2023-06-10T12:50:33;3.75;;;3.10;;
15049;SDS011;7622;42.724;23.250;2023-06-10T12:53:00;3.30;;;3.00;;
15049;SDS011;7622;42.724;23.250;2023-06-10T12:55:26;6.95;;;3.25;;
15049;SDS011;7622;42.724;23.250;2023-06-10T12:57:53;3.78;;;3.17;;
15049;SDS011;7622;42.724;23.250;2023-06-10T13:00:21;4.63;;;3.75;;
15049;SDS011;7622;42.724;23.250;2023-06-10T13:02:51;4.22;;;3.92;;
15049;SDS011;7622;42.724;23.250;2023-06-10T13:05:18;6.55;;;4.10;;
15049;SDS011;7622;42.724;23.250;2023-06-10T13:07:46;5.10;;;4.00;;
15049;SDS011;7622;42.724;23.250;2023-06-10T13:10:13;7.00;;;4.10;;
15049;SDS011;7622;42.724;23.250;2023-06-10T13:12:41;8.03;;;4.20;;
15049;SDS011;7622;42.724;23.250;2023-06-10T13:15:08;4.17;;;3.87;;
15049;SDS011;7622;42.724;23.250;2023-06-10T13:17:35;5.80;;;3.97;;
15049;SDS011;7622;42.724;23.250;2023-06-10T13:20:02;5.87;;;4.27;;
15049;SDS011;7622;42.724;23.250;2023-06-10T13:22:30;5.87;;;4.30;;
15049;SDS011;7622;42.724;23.250;2023-06-10T13:24:59;9.83;;;4.87;;
15049;SDS011;7622;42.724;23.250;2023-06-10T13:27:26;8.60;;;5.17;;
15049;SDS011;7622;42.724;23.250;2023-06-10T13:29:53;5.57;;;4.77;;
15049;SDS011;7622;42.724;23.250;2023-06-10T13:32:19;5.93;;;4.93;;
15049;SDS011;7622;42.724;23.250;2023-06-10T13:34:46;5.60;;;4.37;;
15049;SDS011;7622;42.724;23.250;2023-06-10T13:37:14;7.83;;;4.70;;
15049;SDS011;7622;42.724;23.250;2023-06-10T13:39:42;6.47;;;4.87;;
15049;SDS011;7622;42.724;23.250;2023-06-10T13:42:10;7.53;;;5.23;;
15049;SDS011;7622;42.724;23.250;2023-06-10T13:44:37;7.93;;;4.73;;
15049;SDS011;7622;42.724;23.250;2023-06-10T13:47:04;5.80;;;4.43;;
15049;SDS011;7622;42.724;23.250;2023-06-10T13:49:31;5.27;;;4.97;;
15049;SDS011;7622;42.724;23.250;2023-06-10T13:51:57;5.43;;;5.03;;
15049;SDS011;7622;42.724;23.250;2023-06-10T13:54:24;5.13;;;4.73;;
15049;SDS011;7622;42.724;23.250;2023-06-10T13:56:52;5.43;;;4.20;;
15049;SDS011;7622;42.724;23.250;2023-06-10T13:59:20;5.63;;;5.10;;
15049;SDS011;7622;42.724;23.250;2023-06-10T14:01:47;4.77;;;4.43;;
15049;SDS011;7622;42.724;23.250;2023-06-10T14:04:14;4.90;;;4.50;;
15049;SDS011;7622;42.724;23.250;2023-06-10T14:06:41;4.97;;;4.43;;
15049;SDS011;7622;42.724;23.250;2023-06-10T14:09:08;4.67;;;4.33;;
15049;SDS011;7622;42.724;23.250;2023-06-10T14:11:35;7.90;;;5.37;;
15049;SDS011;7622;42.724;23.250;2023-06-10T14:14:02;8.67;;;5.57;;
15049;SDS011;7622;42.724;23.250;2023-06-10T14:16:30;5.00;;;4.60;;
15049;SDS011;7622;42.724;23.250;2023-06-10T14:18:57;6.73;;;4.67;;
15049;SDS011;7622;42.724;23.250;2023-06-10T14:21:23;4.87;;;4.53;;
15049;SDS011;7622;42.724;23.250;2023-06-10T14:23:50;4.43;;;4.13;;
15049;SDS011;7622;42.724;23.250;2023-06-10T14:26:18;5.70;;;4.97;;
15049;SDS011;7622;42.724;23.250;2023-06-10T14:28:46;4.53;;;4.13;;
15049;SDS011;7622;42.724;23.250;2023-06-10T14:31:14;6.17;;;4.33;;
15049;SDS011;7622;42.724;23.250;2023-06-10T14:33:42;10.67;;;5.10;;
15049;SDS011;7622;42.724;23.250;2023-06-10T14:36:09;7.37;;;5.70;;
15049;SDS011;7622;42.724;23.250;2023-06-10T14:38:36;7.77;;;5.40;;
15049;SDS011;7622;42.724;23.250;2023-06-10T14:41:03;5.43;;;4.93;;
15049;SDS011;7622;42.724;23.250;2023-06-10T14:43:29;4.57;;;4.17;;
15049;SDS011;7622;42.724;23.250;2023-06-10T14:45:56;10.87;;;5.33;;
15049;SDS011;7622;42.724;23.250;2023-06-10T14:48:23;5.03;;;4.30;;
15049;SDS011;7622;42.724;23.250;2023-06-10T14:50:51;6.53;;;4.80;;
15049;SDS011;7622;42.724;23.250;2023-06-10T14:53:20;7.07;;;4.20;;
15049;SDS011;7622;42.724;23.250;2023-06-10T14:55:47;4.90;;;4.03;;